Map

Track Data

SID SEASON NUMBER BASIN SUBBASIN NAME ISO_TIME NATURE LAT LON WMO_WIND WMO_PRES WMO_AGENCY TRACK_TYPE DIST2LAND LANDFALL IFLAG USA_AGENCY USA_ATCF_ID USA_LAT USA_LON USA_RECORD USA_STATUS USA_WIND USA_PRES USA_SSHS USA_R34_NE USA_R34_SE USA_R34_SW USA_R34_NW USA_R50_NE USA_R50_SE USA_R50_SW USA_R50_NW USA_R64_NE USA_R64_SE USA_R64_SW USA_R64_NW USA_POCI USA_ROCI USA_RMW USA_EYE TOKYO_LAT TOKYO_LON TOKYO_GRADE TOKYO_WIND TOKYO_PRES TOKYO_R50_DIR TOKYO_R50_LONG TOKYO_R50_SHORT TOKYO_R30_DIR TOKYO_R30_LONG TOKYO_R30_SHORT TOKYO_LAND CMA_LAT CMA_LON CMA_CAT CMA_WIND CMA_PRES HKO_LAT HKO_LON HKO_CAT HKO_WIND HKO_PRES NEWDELHI_LAT NEWDELHI_LON NEWDELHI_GRADE NEWDELHI_WIND NEWDELHI_PRES NEWDELHI_CI NEWDELHI_DP NEWDELHI_POCI REUNION_LAT REUNION_LON REUNION_TYPE REUNION_WIND REUNION_PRES REUNION_TNUM REUNION_CI REUNION_RMW REUNION_R34_NE REUNION_R34_SE REUNION_R34_SW REUNION_R34_NW REUNION_R50_NE REUNION_R50_SE REUNION_R50_SW REUNION_R50_NW REUNION_R64_NE REUNION_R64_SE REUNION_R64_SW REUNION_R64_NW BOM_LAT BOM_LON BOM_TYPE BOM_WIND BOM_PRES BOM_TNUM BOM_CI BOM_RMW BOM_R34_NE BOM_R34_SE BOM_R34_SW BOM_R34_NW BOM_R50_NE BOM_R50_SE BOM_R50_SW BOM_R50_NW BOM_R64_NE BOM_R64_SE BOM_R64_SW BOM_R64_NW BOM_ROCI BOM_POCI BOM_EYE BOM_POS_METHOD BOM_PRES_METHOD NADI_LAT NADI_LON NADI_CAT NADI_WIND NADI_PRES WELLINGTON_LAT WELLINGTON_LON WELLINGTON_WIND WELLINGTON_PRES DS824_LAT DS824_LON DS824_STAGE DS824_WIND DS824_PRES TD9636_LAT TD9636_LON TD9636_STAGE TD9636_WIND TD9636_PRES TD9635_LAT TD9635_LON TD9635_WIND TD9635_PRES TD9635_ROCI NEUMANN_LAT NEUMANN_LON NEUMANN_CLASS NEUMANN_WIND NEUMANN_PRES MLC_LAT MLC_LON MLC_CLASS MLC_WIND MLC_PRES USA_GUST BOM_GUST BOM_GUST_PER REUNION_GUST REUNION_GUST_PER USA_SEAHGT USA_SEARAD_NE USA_SEARAD_SE USA_SEARAD_SW USA_SEARAD_NW STORM_SPEED STORM_DIR
1878237N25283 1878 15 NA NA NOT_NAMED 1878-08-25 00:00:00 TS 24.7000 -77.1000 40 hurdat_atl spur-split 64 64 O_____________ hurdat_atl AL041878 24.7000 -77.1000 TS 40 0 9 35
1878237N25283 1878 15 NA NA NOT_NAMED 1878-08-25 03:00:00 TS 25.0627 -76.8206 spur-split 110 110 P_____________ AL041878 25.0627 -76.8206 TS 40 0 8 33
1878237N25283 1878 15 NA NA NOT_NAMED 1878-08-25 06:00:00 TS 25.4000 -76.6000 40 hurdat_atl spur-split 142 142 O_____________ hurdat_atl AL041878 25.4000 -76.6000 TS 40 0 7 27
1878237N25283 1878 15 NA NA NOT_NAMED 1878-08-25 09:00:00 TS 25.6998 -76.4645 spur-split 164 164 P_____________ AL041878 25.6998 -76.4645 TS 45 0 7 24
1878237N25283 1878 15 NA NA NOT_NAMED 1878-08-25 12:00:00 TS 26.0000 -76.3000 50 hurdat_atl spur-split 197 197 O_____________ hurdat_atl AL041878 26.0000 -76.3000 TS 50 0 8 34
1878237N25283 1878 15 NA NA NOT_NAMED 1878-08-25 15:00:00 TS 26.3426 -75.9801 spur-split 240 240 P_____________ AL041878 26.3426 -75.9801 TS 50 0 9 42
1878237N25283 1878 15 NA NA NOT_NAMED 1878-08-25 18:00:00 TS 26.7000 -75.6000 50 996 hurdat_atl spur-split 299 299 O_____________ hurdat_atl AL041878 26.7000 -75.6000 TS 50 996 0 10 43
1878237N25283 1878 15 NA NA NOT_NAMED 1878-08-25 21:00:00 TS 27.0424 -75.2571 spur-split 343 343 P_____________ AL041878 27.0424 -75.2571 TS 55 0 9 42
1878237N25283 1878 15 NA NA NOT_NAMED 1878-08-26 00:00:00 TS 27.4000 -74.9000 60 hurdat_atl spur-split 401 401 O_____________ hurdat_atl AL041878 27.4000 -74.9000 TS 60 0 10 41
1878237N25283 1878 15 NA NA NOT_NAMED 1878-08-26 03:00:00 TS 27.7922 -74.5296 spur-split 460 460 P_____________ AL041878 27.7922 -74.5296 TS 60 0 11 42
1878237N25283 1878 15 NA NA NOT_NAMED 1878-08-26 06:00:00 TS 28.2000 -74.1000 60 hurdat_atl spur-split 519 519 O_____________ hurdat_atl AL041878 28.2000 -74.1000 TS 60 0 12 46
1878237N25283 1878 15 NA NA NOT_NAMED 1878-08-26 09:00:00 TS 28.6227 -73.5578 spur-split 585 585 P_____________ AL041878 28.6227 -73.5578 TS 65 1 13 50
1878237N25283 1878 15 NA NA NOT_NAMED 1878-08-26 12:00:00 TS 29.0000 -73.0000 70 hurdat_atl spur-split 658 658 O_____________ hurdat_atl AL041878 29.0000 -73.0000 HU 70 1 11 55
1878237N25283 1878 15 NA NA NOT_NAMED 1878-08-26 15:00:00 TS 29.2647 -72.5268 spur-split 710 705 P_____________ AL041878 29.2647 -72.5268 HU 70 1 9 58
1878237N25283 1878 15 NA NA NOT_NAMED 1878-08-26 18:00:00 TS 29.5000 -72.1000 70 hurdat_atl spur-split 712 702 O_____________ hurdat_atl AL041878 29.5000 -72.1000 HU 70 1 9 54
1878237N25283 1878 15 NA NA NOT_NAMED 1878-08-26 21:00:00 TS 29.7847 -71.7070 spur-split 708 703 P_____________ AL041878 29.7847 -71.7070 HU 70 1 9 49
1878237N25283 1878 15 NA NA NOT_NAMED 1878-08-27 00:00:00 TS 30.1000 -71.3000 70 hurdat_atl spur-split 707 704 O_____________ hurdat_atl AL041878 30.1000 -71.3000 HU 70 1 10 50
1878237N25283 1878 15 NA NA NOT_NAMED 1878-08-27 03:00:00 TS 30.4425 -70.8149 spur-split 716 709 P_____________ AL041878 30.4425 -70.8149 HU 70 1 11 51
1878237N25283 1878 15 NA NA NOT_NAMED 1878-08-27 06:00:00 TS 30.8000 -70.3000 70 hurdat_atl spur-split 722 722 O_____________ hurdat_atl AL041878 30.8000 -70.3000 HU 70 1 11 51
1878237N25283 1878 15 NA NA NOT_NAMED 1878-08-27 09:00:00 TS 31.1649 -69.7924 spur-split 731 731 P_____________ AL041878 31.1649 -69.7924 HU 75 1 11 51
1878237N25283 1878 15 NA NA NOT_NAMED 1878-08-27 12:00:00 TS 31.5000 -69.3000 80 hurdat_atl spur-split 746 746 O_____________ hurdat_atl AL041878 31.5000 -69.3000 HU 80 1 10 54
1878237N25283 1878 15 NA NA NOT_NAMED 1878-08-27 15:00:00 TS 31.7648 -68.8420 spur-split 761 761 P_____________ AL041878 31.7648 -68.8420 HU 80 1 9 57
1878237N25283 1878 15 NA NA NOT_NAMED 1878-08-27 18:00:00 TS 32.0000 -68.4000 80 hurdat_atl spur-split 778 778 O_____________ hurdat_atl AL041878 32.0000 -68.4000 HU 80 1 9 57
1878237N25283 1878 15 NA NA NOT_NAMED 1878-08-27 21:00:00 TS 32.2573 -67.9499 spur-split 799 799 P_____________ AL041878 32.2573 -67.9499 HU 85 2 9 57
1878237N25283 1878 15 NA NA NOT_NAMED 1878-08-28 00:00:00 TS 32.5000 -67.5000 90 hurdat_atl spur-split 821 821 O_____________ hurdat_atl AL041878 32.5000 -67.5000 HU 90 2 9 59
1878237N25283 1878 15 NA NA NOT_NAMED 1878-08-28 03:00:00 TS 32.6920 -67.0792 spur-split 843 843 P_____________ AL041878 32.6920 -67.0792 HU 90 2 9 62
1878237N25283 1878 15 NA NA NOT_NAMED 1878-08-28 06:00:00 TS 32.9000 -66.6000 90 hurdat_atl spur-split 876 876 O_____________ hurdat_atl AL041878 32.9000 -66.6000 HU 90 2 10 61
1878237N25283 1878 15 NA NA NOT_NAMED 1878-08-28 09:00:00 TS 33.1925 -65.9877 spur-split 915 915 P_____________ AL041878 33.1925 -65.9877 HU 90 2 12 61
1878237N25283 1878 15 NA NA NOT_NAMED 1878-08-28 12:00:00 TS 33.5000 -65.3000 90 hurdat_atl spur-split 965 965 O_____________ hurdat_atl AL041878 33.5000 -65.3000 HU 90 2 13 64
1878237N25283 1878 15 NA NA NOT_NAMED 1878-08-28 15:00:00 TS 33.7568 -64.6293 spur-split 998 997 P_____________ AL041878 33.7568 -64.6293 HU 90 2 13 67
1878237N25283 1878 15 NA NA NOT_NAMED 1878-08-28 18:00:00 TS 34.0000 -63.9000 90 972 hurdat_atl spur-split 1009 1009 O_____________ hurdat_atl AL041878 34.0000 -63.9000 HU 90 972 2 14 70
1878237N25283 1878 15 NA NA NOT_NAMED 1878-08-28 21:00:00 TS 34.2347 -63.0791 spur-split 1029 1025 P_____________ AL041878 34.2347 -63.0791 HU 85 972 2 15 70
1878237N25283 1878 15 NA NA NOT_NAMED 1878-08-29 00:00:00 TS 34.5000 -62.2000 80 hurdat_atl spur-split 1036 1021 I_____________ hurdat_atl AL041878 34.5000 -62.2000 HU 80 973 1 16 67
1878237N25283 1878 15 NA NA NOT_NAMED 1878-08-29 03:00:00 TS 34.8497 -61.3004 spur-split 1027 1010 P_____________ AL041878 34.8497 -61.3004 HU 80 974 1 16 65
1878237N25283 1878 15 NA NA NOT_NAMED 1878-08-29 06:00:00 TS 35.2000 -60.4000 80 975 hurdat_atl spur-split 1014 1011 O_____________ hurdat_atl AL041878 35.2000 -60.4000 HU 80 975 1 15 67
1878237N25283 1878 15 NA NA NOT_NAMED 1878-08-29 09:00:00 TS 35.4555 -59.5931 spur-split 1014 1014 P_____________ AL041878 35.4555 -59.5931 HU 80 1 15 70
1878237N25283 1878 15 NA NA NOT_NAMED 1878-08-29 12:00:00 TS 35.7000 -58.7000 80 hurdat_atl spur-split 1034 1034 O_____________ hurdat_atl AL041878 35.7000 -58.7000 HU 80 1 17 71
1878237N25283 1878 15 NA NA NOT_NAMED 1878-08-29 15:00:00 TS 35.9979 -57.6194 spur-split 1060 1058 P_____________ AL041878 35.9979 -57.6194 HU 80 1 20 73
1878237N25283 1878 15 NA NA NOT_NAMED 1878-08-29 18:00:00 TS 36.3000 -56.3000 80 hurdat_atl spur-split 1068 1067 O_____________ hurdat_atl AL041878 36.3000 -56.3000 HU 80 1 24 76
1878237N25283 1878 15 NA NA NOT_NAMED 1878-08-29 21:00:00 TS 36.5796 -54.7328 spur-split 1095 1090 P_____________ AL041878 36.5796 -54.7328 HU 80 1 27 79
1878237N25283 1878 15 NA NA NOT_NAMED 1878-08-30 00:00:00 TS 36.8000 -53.0000 80 hurdat_atl spur-split 1090 1081 O_____________ hurdat_atl AL041878 36.8000 -53.0000 HU 80 1 28 83
1878237N25283 1878 15 NA NA NOT_NAMED 1878-08-30 03:00:00 TS 36.9146 -51.2254 spur-split 1091 1091 P_____________ AL041878 36.9146 -51.2254 HU 80 1 28 86
1878237N25283 1878 15 NA NA NOT_NAMED 1878-08-30 06:00:00 TS 37.0000 -49.5000 80 hurdat_atl spur-split 1110 1110 O_____________ hurdat_atl AL041878 37.0000 -49.5000 HU 80 1 26 85
1878237N25283 1878 15 NA NA NOT_NAMED 1878-08-30 09:00:00 TS 37.1451 -48.0000 spur-split 1139 1132 P_____________ AL041878 37.1451 -48.0000 HU 80 1 24 83
1878237N25283 1878 15 NA NA NOT_NAMED 1878-08-30 12:00:00 TS 37.3000 -46.5000 80 hurdat_atl spur-split 1171 1171 O_____________ hurdat_atl AL041878 37.3000 -46.5000 HU 80 1 25 84
1878237N25283 1878 15 NA NA NOT_NAMED 1878-08-30 15:00:00 TS 37.4199 -44.8130 spur-split 1233 1233 P_____________ AL041878 37.4199 -44.8130 HU 80 1 28 86
1878237N25283 1878 15 NA NA NOT_NAMED 1878-08-30 18:00:00 TS 37.5000 -43.0000 80 hurdat_atl spur-split 1312 O_____________ hurdat_atl AL041878 37.5000 -43.0000 HU 80 1 29 87

About IBTrACS Database

This database is a web-friendly format of International Best Track Archive for Climate Stewardship (IBTrACS), a global best track data archive curated by NOAA dating back to 1842.

Updated: 2021-10-08